Time;durP1;ratioP1;P1;durP2;ratioP2;P2;SDS_P1;SDS_P2;PMS_P1;PMS_P2;Temp;Humidity;BMP_temperature;BMP_pressure;BME280_temperature;BME280_humidity;BME280_pressure;Samples;Min_cycle;Max_cycle;Signal;HPM_P1;HPM_P2
2023/03/02 00:02:16;;;;;;;22.40;13.82;;;22.40;72.00;;;21.57;34.47;99529.41;5107293;27;20047;-68
2023/03/02 00:05:06;;;;;;;26.33;14.38;;;22.30;72.50;;;21.58;34.76;99524.72;5111545;27;20054;-68
2023/03/02 00:07:32;;;;;;;22.08;14.10;;;22.30;72.60;;;21.55;34.57;99523.44;5066947;28;20083;-68
2023/03/02 00:09:59;;;;;;;22.50;14.05;;;22.30;73.20;;;21.56;34.60;99533.34;5050202;28;20056;-68
2023/03/02 00:12:27;;;;;;;24.67;14.32;;;22.30;73.00;;;21.56;34.64;99527.00;5036632;28;20043;-68
2023/03/02 00:14:54;;;;;;;25.05;14.77;;;22.20;73.30;;;21.53;34.55;99531.22;5053705;28;20141;-68
2023/03/02 00:17:26;;;;;;;27.48;15.68;;;22.30;76.90;;;21.53;34.55;99527.66;5063701;28;20480;-68
2023/03/02 00:19:54;;;;;;;23.35;14.38;;;22.30;74.70;;;21.57;34.53;99526.66;5045333;28;20044;-68
2023/03/02 00:22:20;;;;;;;23.52;15.25;;;22.30;74.40;;;21.53;34.74;99522.16;5071189;28;20056;-68
2023/03/02 00:24:46;;;;;;;24.75;14.38;;;22.30;74.90;;;21.52;34.68;99526.03;5073449;28;20579;-68
2023/03/02 00:27:12;;;;;;;26.23;15.45;;;22.30;74.20;;;21.51;34.52;99528.00;5070304;28;20080;-68
2023/03/02 00:29:38;;;;;;;29.48;17.40;;;22.20;74.00;;;21.52;34.43;99526.03;5071184;28;20127;-68
2023/03/02 00:32:05;;;;;;;20.67;13.50;;;22.60;74.20;;;21.60;34.45;99516.91;5070743;28;20570;-69
2023/03/02 00:34:31;;;;;;;22.80;14.52;;;22.30;73.90;;;21.54;34.46;99512.72;5064268;28;20045;-68
2023/03/02 00:36:58;;;;;;;28.48;16.35;;;22.30;74.30;;;21.51;34.46;99514.19;5066118;28;20052;-69
2023/03/02 00:39:24;;;;;;;24.58;15.32;;;22.30;74.80;;;21.52;34.43;99521.31;5102410;27;20111;-68
2023/03/02 00:41:50;;;;;;;22.25;14.23;;;22.20;74.40;;;21.50;34.77;99520.84;5109054;27;20396;-69
2023/03/02 00:44:16;;;;;;;21.98;14.27;;;22.30;75.20;;;21.49;34.59;99518.41;5106355;27;20051;-69
2023/03/02 00:46:43;;;;;;;27.73;16.60;;;22.20;75.90;;;21.46;34.59;99517.94;5102269;27;20039;-69
2023/03/02 00:49:10;;;;;;;30.65;16.02;;;22.20;74.90;;;21.45;34.52;99512.75;5104685;27;20044;-69
2023/03/02 00:51:36;;;;;;;28.70;16.50;;;22.20;73.10;;;21.46;34.68;99515.16;5100906;27;20458;-68
2023/03/02 00:54:03;;;;;;;26.60;16.83;;;22.10;73.00;;;21.43;34.74;99513.06;5100089;27;20040;-68
2023/03/02 00:56:29;;;;;;;29.08;17.48;;;22.20;73.60;;;21.42;34.49;99507.88;5117230;27;20054;-68
2023/03/02 00:58:55;;;;;;;20.90;14.10;;;22.20;73.50;;;21.41;34.69;99509.81;5112326;27;20399;-68
2023/03/02 01:01:22;;;;;;;28.83;16.08;;;22.20;73.70;;;21.43;34.73;99506.75;5108262;27;20054;-69
2023/03/02 01:03:48;;;;;;;26.83;15.75;;;22.20;74.10;;;21.41;34.60;99503.50;5110577;27;20251;-69
2023/03/02 01:06:16;;;;;;;28.27;16.80;;;22.10;72.80;;;21.41;34.53;99509.81;5112361;27;20442;-69
2023/03/02 01:08:42;;;;;;;26.40;15.90;;;22.10;73.00;;;21.42;34.64;99499.59;5090914;28;20055;-69
2023/03/02 01:11:17;;;;;;;24.48;16.48;;;22.10;72.90;;;21.40;34.86;99507.41;5105275;27;20113;-68
2023/03/02 01:13:44;;;;;;;22.08;15.30;;;22.10;72.80;;;21.38;34.67;99504.97;5102416;28;20047;-69
2023/03/02 01:16:10;;;;;;;28.15;16.38;;;22.10;73.00;;;21.38;34.78;99507.72;5108166;27;20054;-69
2023/03/02 01:18:37;;;;;;;30.27;16.65;;;22.10;73.00;;;21.36;34.76;99498.94;5100387;28;20055;-69
2023/03/02 01:21:14;;;;;;;29.05;16.73;;;22.10;73.10;;;21.38;34.57;99506.88;5107224;28;20474;-69
2023/03/02 01:23:40;;;;;;;31.45;16.00;;;22.10;73.30;;;21.36;34.60;99500.88;5107890;28;20055;-69
2023/03/02 01:26:06;;;;;;;26.70;15.90;;;22.10;73.50;;;21.37;34.63;99497.81;5102863;28;20043;-69
2023/03/02 01:28:32;;;;;;;30.17;17.40;;;22.10;73.50;;;21.36;34.90;99495.38;5103672;28;20055;-69
2023/03/02 01:31:01;;;;;;;27.80;16.52;;;22.10;73.50;;;21.35;34.72;99500.06;5111906;28;20067;-69
2023/03/02 01:33:27;;;;;;;27.35;16.80;;;22.10;75.80;;;21.37;34.62;99492.28;5110317;27;20494;-69
2023/03/02 01:35:53;;;;;;;32.03;19.83;;;22.10;73.40;;;21.36;34.83;99485.13;5107260;28;20047;-69
2023/03/02 01:38:19;;;;;;;26.65;17.88;;;22.10;73.60;;;21.32;34.77;99484.19;5105067;28;20043;-69
2023/03/02 01:40:45;;;;;;;30.42;19.52;;;22.10;73.50;;;21.32;34.92;99486.94;5110051;28;20058;-69
2023/03/02 01:43:14;;;;;;;32.88;17.15;;;22.00;73.10;;;21.34;34.91;99484.66;5109147;28;20480;-69
2023/03/02 01:45:52;;;;;;;29.88;19.15;;;22.00;74.60;;;21.34;34.52;99486.59;5108715;28;20471;-69
2023/03/02 01:48:43;;;;;;;28.20;18.00;;;22.10;73.30;;;21.28;34.91;99483.22;5099091;28;20499;-69
2023/03/02 01:51:14;;;;;;;31.45;19.30;;;22.10;73.40;;;21.29;34.88;99479.31;5093080;28;20052;-69
2023/03/02 01:53:45;;;;;;;29.38;18.60;;;22.00;73.20;;;21.31;34.75;99476.22;5069803;28;20093;-69
2023/03/02 01:56:14;;;;;;;30.17;18.02;;;22.00;73.50;;;21.28;34.89;99471.38;5087726;28;20063;-69
2023/03/02 01:58:41;;;;;;;27.95;16.98;;;22.20;73.90;;;21.28;34.91;99466.66;5104010;28;20040;-69
2023/03/02 02:01:14;;;;;;;28.10;17.48;;;22.00;73.30;;;21.24;34.88;99468.44;5109851;28;20406;-69
2023/03/02 02:03:42;;;;;;;24.75;17.13;;;22.00;73.20;;;21.29;34.74;99464.69;5106562;28;20043;-69
2023/03/02 02:06:16;;;;;;;30.83;19.60;;;22.00;73.20;;;21.26;34.75;99468.94;5108096;28;20229;-69
2023/03/02 02:08:44;;;;;;;30.83;17.80;;;22.00;73.20;;;21.26;34.77;99457.88;5093517;28;20371;-69
2023/03/02 02:11:11;;;;;;;31.15;20.33;;;22.00;73.40;;;21.28;34.79;99454.81;5093446;28;20075;-69
2023/03/02 02:13:37;;;;;;;31.92;18.30;;;22.00;73.70;;;21.27;34.62;99451.25;5105815;28;20046;-69
2023/03/02 02:16:04;;;;;;;32.83;19.88;;;22.00;73.60;;;21.24;34.84;99452.72;5110395;28;20039;-69
2023/03/02 02:18:30;;;;;;;28.65;17.25;;;22.00;73.80;;;21.21;34.91;99452.56;5075959;28;20044;-69
2023/03/02 02:20:56;;;;;;;32.72;19.30;;;22.00;73.80;;;21.23;34.71;99442.00;5091051;28;20078;-69
2023/03/02 02:24:21;;;;;;;31.38;18.75;;;21.90;73.90;;;21.23;34.83;99447.53;5086632;28;20040;-69
2023/03/02 02:26:56;;;;;;;32.72;19.00;;;21.90;74.30;;;21.20;34.95;99435.19;5103856;28;20046;-69
2023/03/02 02:29:38;;;;;;;29.92;19.48;;;21.90;74.50;;;21.20;34.78;99442.66;5105042;28;20040;-69
2023/03/02 02:32:14;;;;;;;;;;;21.90;74.50;;;21.17;35.02;99438.63;5095144;27;20067;-69
2023/03/02 02:34:50;;;;;;;31.83;19.02;;;21.90;74.60;;;21.19;34.58;99438.25;5115560;27;20409;-69
2023/03/02 02:37:37;;;;;;;31.10;19.98;;;21.90;74.80;;;21.18;34.77;99433.91;5111847;27;20056;-69
2023/03/02 02:40:06;;;;;;;33.88;19.50;;;21.90;74.70;;;21.19;34.84;99430.00;5107936;27;20450;-69
2023/03/02 02:42:34;;;;;;;35.72;20.13;;;21.90;74.50;;;21.18;34.78;99428.38;5104567;27;20608;-69
2023/03/02 02:45:05;;;;;;;29.63;18.48;;;21.90;73.60;;;21.16;34.83;99430.66;5071334;27;20043;-69
2023/03/02 02:47:31;;;;;;;32.13;20.10;;;21.90;72.90;;;21.14;34.76;99431.00;5098481;28;20050;-69
2023/03/02 02:49:57;;;;;;;32.03;21.25;;;21.90;72.60;;;21.13;34.75;99426.59;5089183;27;20043;-69
2023/03/02 02:52:25;;;;;;;31.05;18.85;;;21.90;72.60;;;21.15;34.62;99434.56;5095388;27;20097;-69
2023/03/02 02:54:53;;;;;;;31.13;21.75;;;21.90;72.60;;;21.12;34.94;99430.50;5109641;27;20130;-69
2023/03/02 02:57:19;;;;;;;33.25;20.58;;;21.90;72.20;;;21.12;34.61;99421.44;5111065;27;20085;-69
2023/03/02 02:59:48;;;;;;;24.45;18.13;;;21.90;72.00;;;21.14;34.78;99425.47;5085956;27;20044;-69
2023/03/02 03:02:22;;;;;;;30.60;19.70;;;21.80;71.70;;;21.12;34.69;99419.47;5108151;27;20048;-69
2023/03/02 03:04:48;;;;;;;30.08;19.23;;;21.80;71.70;;;21.12;34.89;99416.72;5089438;27;20043;-69
2023/03/02 03:07:21;;;;;;;31.77;19.65;;;21.80;71.50;;;21.12;34.82;99413.16;5110279;27;20059;-69
2023/03/02 03:10:02;;;;;;;32.13;20.20;;;21.80;71.40;;;21.10;34.68;99412.66;5096760;27;20109;-69
2023/03/02 03:12:28;;;;;;;32.53;21.33;;;21.80;71.50;;;21.07;35.05;99416.09;5114876;27;20039;-69
2023/03/02 03:14:54;;;;;;;32.70;22.13;;;21.80;71.30;;;21.08;34.90;99409.44;5093526;27;20047;-69
2023/03/02 03:17:20;;;;;;;33.92;20.98;;;21.80;71.30;;;21.07;34.82;99405.88;5107176;27;20052;-69
2023/03/02 03:19:46;;;;;;;28.70;19.45;;;21.80;71.00;;;21.08;35.03;99409.44;5110837;27;20481;-69
2023/03/02 03:22:14;;;;;;;35.75;21.80;;;21.80;70.80;;;21.08;34.85;99412.19;5106287;27;20110;-69
2023/03/02 03:24:42;;;;;;;29.10;19.55;;;21.80;71.00;;;21.10;34.73;99402.44;5106479;27;20040;-69
2023/03/02 03:27:08;;;;;;;32.13;21.48;;;21.80;70.70;;;21.08;34.79;99401.16;5111928;27;20088;-69
2023/03/02 03:29:36;;;;;;;36.40;21.85;;;21.80;70.60;;;21.06;34.65;99404.22;5110998;27;20036;-69
2023/03/02 03:32:03;;;;;;;34.70;21.67;;;21.80;70.60;;;21.08;34.83;99401.16;5112303;27;20459;-69
2023/03/02 03:34:29;;;;;;;30.13;20.13;;;21.80;70.50;;;21.03;34.88;99397.41;5105328;27;20039;-69
2023/03/02 03:37:00;;;;;;;35.55;21.30;;;21.70;71.40;;;21.06;34.85;99395.16;5109420;27;20043;-69
2023/03/02 03:39:29;;;;;;;30.50;20.15;;;21.70;70.60;;;21.06;34.71;99392.38;5115340;27;20440;-70
2023/03/02 03:41:56;;;;;;;32.10;21.67;;;21.80;70.90;;;21.05;34.66;99393.53;5109128;27;20798;-69
2023/03/02 03:44:22;;;;;;;37.38;22.55;;;21.70;70.40;;;21.05;34.59;99386.06;5110589;27;20047;-69
2023/03/02 03:46:48;;;;;;;28.77;18.55;;;21.70;70.60;;;21.02;34.76;99390.28;5112617;27;20376;-69
2023/03/02 03:49:14;;;;;;;41.55;21.77;;;21.70;75.60;;;21.01;34.90;99380.41;5113500;27;20069;-69
2023/03/02 03:51:41;;;;;;;37.20;22.90;;;21.70;74.60;;;21.01;34.70;99387.84;5103909;27;20119;-69
2023/03/02 03:54:07;;;;;;;30.65;21.00;;;21.70;73.20;;;21.01;34.79;99379.59;5117388;27;20114;-69
2023/03/02 03:56:39;;;;;;;29.52;20.95;;;21.80;73.00;;;21.05;34.86;99388.03;5124495;27;20040;-69
2023/03/02 03:59:07;;;;;;;34.85;22.00;;;21.70;72.90;;;20.98;34.89;99392.09;5107025;27;20040;-69
2023/03/02 04:01:44;;;;;;;39.70;24.60;;;21.70;73.00;;;20.99;34.91;99392.91;5102589;27;20059;-69
2023/03/02 04:04:17;;;;;;;36.08;22.65;;;21.70;72.80;;;20.98;34.68;99392.09;5113346;27;20407;-69
2023/03/02 04:06:43;;;;;;;34.28;22.08;;;21.70;73.00;;;21.02;34.67;99386.72;5099633;27;20079;-69
2023/03/02 04:09:11;;;;;;;39.42;23.23;;;21.70;73.80;;;21.10;34.79;99387.84;5112020;27;20057;-70
2023/03/02 04:11:41;;;;;;;35.25;21.30;;;21.70;72.90;;;21.01;34.78;99388.69;5113581;27;20047;-70
2023/03/02 04:14:07;;;;;;;32.47;21.10;;;21.70;73.40;;;20.97;34.93;99389.66;5112686;27;20102;-70
2023/03/02 04:16:34;;;;;;;31.35;20.73;;;21.70;73.30;;;20.97;34.72;99384.16;5113502;27;20832;-70
2023/03/02 04:19:00;;;;;;;32.58;20.08;;;21.70;73.10;;;20.96;34.92;99382.50;5111237;27;20046;-70
2023/03/02 04:21:26;;;;;;;32.08;21.52;;;21.70;73.20;;;20.92;34.61;99382.38;5113359;27;20043;-70
2023/03/02 04:23:53;;;;;;;34.92;22.83;;;21.70;73.20;;;20.90;34.70;99383.84;5110926;27;20038;-70
2023/03/02 04:26:18;;;;;;;33.85;21.75;;;21.70;73.30;;;20.91;34.61;99383.50;5110797;27;20435;-70
2023/03/02 04:28:45;;;;;;;30.85;20.83;;;21.60;73.40;;;20.89;34.71;99380.28;5105871;27;20041;-70
2023/03/02 04:31:11;;;;;;;30.77;19.63;;;21.60;73.10;;;20.88;34.48;99375.88;5109132;27;20039;-70
2023/03/02 04:33:38;;;;;;;33.63;22.20;;;21.60;73.40;;;20.88;34.72;99370.38;5105279;27;20460;-70
2023/03/02 04:36:04;;;;;;;34.05;21.38;;;21.60;73.20;;;20.87;34.79;99374.28;5108715;27;20071;-70
2023/03/02 04:38:30;;;;;;;36.13;22.13;;;21.60;73.00;;;20.86;34.66;99375.41;5102624;27;20046;-70
2023/03/02 04:40:56;;;;;;;36.92;22.38;;;21.60;73.10;;;20.83;34.54;99365.03;5113354;27;20048;-70
2023/03/02 04:43:24;;;;;;;32.83;22.13;;;21.60;73.20;;;20.84;34.58;99374.09;5114320;27;20050;-70
2023/03/02 04:45:51;;;;;;;32.00;21.27;;;21.60;73.40;;;20.86;34.65;99364.38;5088301;27;20459;-70
2023/03/02 04:48:17;;;;;;;33.47;21.30;;;21.60;73.60;;;20.85;34.43;99370.22;5111420;27;20044;-70
2023/03/02 04:50:43;;;;;;;34.45;21.63;;;21.60;73.30;;;20.83;34.56;99370.53;5111894;27;20044;-70
2023/03/02 04:53:10;;;;;;;34.55;21.70;;;21.60;73.40;;;20.83;34.80;99356.75;5107889;27;20047;-70
2023/03/02 04:55:37;;;;;;;35.53;22.58;;;21.60;73.60;;;20.83;34.61;99366.97;5107442;27;20039;-70
2023/03/02 04:58:03;;;;;;;34.17;21.75;;;21.60;75.00;;;20.83;34.72;99366.97;5110946;27;20043;-70
2023/03/02 05:00:32;;;;;;;35.55;21.55;;;21.60;73.70;;;20.81;34.62;99375.56;5096592;27;20081;-70
2023/03/02 05:03:02;;;;;;;32.05;21.50;;;21.60;73.70;;;20.81;34.49;99370.06;5107011;27;20036;-70
2023/03/02 05:05:29;;;;;;;39.35;22.90;;;21.60;73.80;;;20.82;34.38;99371.69;5108989;27;20048;-70
2023/03/02 05:07:57;;;;;;;29.98;20.70;;;21.50;75.20;;;20.81;34.43;99372.81;5110377;27;20047;-70
2023/03/02 05:10:23;;;;;;;35.15;21.30;;;21.50;74.10;;;20.79;34.62;99372.34;5103738;27;20039;-70
2023/03/02 05:13:01;;;;;;;37.45;22.48;;;21.50;74.00;;;20.78;34.62;99376.22;5101662;28;20051;-70
2023/03/02 05:15:38;;;;;;;36.00;23.08;;;21.50;73.90;;;20.81;34.61;99386.59;5118315;27;20043;-70
2023/03/02 05:18:07;;;;;;;34.40;22.27;;;21.50;74.10;;;20.77;34.58;99385.66;5111737;28;20038;-70
2023/03/02 05:20:33;;;;;;;33.15;21.60;;;21.50;73.90;;;20.77;34.69;99382.91;5113356;28;20564;-70
2023/03/02 05:23:02;;;;;;;35.15;22.90;;;21.50;73.90;;;20.75;34.73;99385.16;5111243;28;20032;-70
2023/03/02 05:25:30;;;;;;;32.08;21.55;;;21.50;74.20;;;20.75;34.54;99383.22;5113808;28;20039;-70
2023/03/02 05:27:57;;;;;;;34.92;23.45;;;21.50;74.20;;;20.75;34.42;99382.41;5111253;28;20046;-70
2023/03/02 05:30:26;;;;;;;35.10;23.85;;;21.50;74.30;;;20.74;34.54;99381.59;5105933;28;20040;-70
2023/03/02 05:32:52;;;;;;;29.73;19.92;;;21.50;74.80;;;20.74;34.46;99381.59;5107935;28;20048;-70
2023/03/02 05:35:20;;;;;;;34.40;22.08;;;21.50;74.30;;;20.74;34.46;99383.56;5108389;28;20093;-70
2023/03/02 05:37:46;;;;;;;33.95;21.80;;;21.50;74.10;;;20.75;34.70;99394.25;5107192;28;20786;-70
2023/03/02 05:40:15;;;;;;;35.40;22.40;;;21.50;74.10;;;20.76;34.57;99392.28;5102905;28;20055;-70
2023/03/02 05:42:41;;;;;;;33.92;22.80;;;21.50;74.30;;;20.76;34.68;99389.53;5106902;28;20158;-70
2023/03/02 05:45:11;;;;;;;34.72;20.85;;;21.50;74.30;;;20.74;34.47;99383.56;5102395;28;20821;-70
2023/03/02 05:47:37;;;;;;;37.25;22.15;;;21.50;74.30;;;20.74;34.40;99389.88;5098589;28;20409;-69
2023/03/02 05:50:04;;;;;;;29.77;20.70;;;21.50;74.50;;;20.74;34.76;99389.88;5111547;28;20036;-69
2023/03/02 05:52:30;;;;;;;34.58;21.00;;;21.50;74.40;;;20.74;34.88;99389.88;5115201;28;20031;-69
2023/03/02 05:54:56;;;;;;;36.67;22.05;;;21.50;74.60;;;20.75;34.60;99393.44;5107845;28;20050;-69
2023/03/02 05:57:23;;;;;;;35.63;20.55;;;21.50;74.80;;;20.73;34.52;99396.50;5116341;28;20036;-69
2023/03/02 05:59:50;;;;;;;35.88;23.90;;;21.50;75.70;;;20.74;34.62;99391.81;5108532;28;20039;-69
2023/03/02 06:02:16;;;;;;;37.92;22.70;;;21.50;74.50;;;20.77;34.46;99391.97;5116242;28;20043;-69
2023/03/02 06:04:43;;;;;;;35.40;22.30;;;21.50;74.80;;;20.76;34.46;99390.38;5114280;28;20042;-70
2023/03/02 06:07:10;;;;;;;32.80;20.48;;;21.50;75.40;;;20.74;34.48;99397.34;5111546;27;20045;-70
2023/03/02 06:09:39;;;;;;;35.33;22.75;;;21.50;75.30;;;20.78;34.74;99398.28;5121933;27;20089;-70
2023/03/02 06:12:06;;;;;;;36.00;21.60;;;21.50;76.70;;;20.80;35.28;99399.59;5109972;27;20054;-69
2023/03/02 06:14:33;;;;;;;34.40;21.88;;;21.50;76.80;;;20.85;35.38;99395.03;5115579;27;20075;-70
2023/03/02 06:16:59;;;;;;;32.30;20.50;;;21.50;76.60;;;20.85;35.60;99398.59;5108744;27;20054;-70
2023/03/02 06:19:25;;;;;;;36.67;20.77;;;21.50;77.00;;;20.85;36.09;99404.13;5116431;27;20578;-70
2023/03/02 06:21:51;;;;;;;36.90;22.23;;;21.50;78.80;;;20.85;36.24;99393.09;5117671;27;20031;-70
2023/03/02 06:24:17;;;;;;;38.83;21.48;;;21.50;77.80;;;20.90;35.98;99395.69;5111863;27;20050;-70
2023/03/02 06:26:43;;;;;;;29.77;20.02;;;21.60;77.90;;;20.90;35.61;99395.69;5110561;27;20039;-70
2023/03/02 06:29:09;;;;;;;39.65;23.40;;;21.60;77.50;;;20.95;35.61;99394.69;5096287;27;20058;-70
2023/03/02 06:31:35;;;;;;;36.15;21.52;;;21.60;77.40;;;20.95;36.04;99387.22;5112539;27;20031;-70
2023/03/02 06:34:01;;;;;;;39.97;23.60;;;21.60;78.40;;;20.96;36.13;99394.38;5096812;27;20051;-70
2023/03/02 06:36:27;;;;;;;34.38;22.48;;;21.60;78.80;;;20.98;36.10;99391.28;5097167;27;20055;-70
2023/03/02 06:38:53;;;;;;;37.85;21.48;;;21.60;78.20;;;20.97;36.02;99400.69;5097648;27;20043;-70
2023/03/02 06:41:19;;;;;;;35.20;22.20;;;21.70;78.00;;;21.01;36.00;99394.19;5112228;27;20467;-70
2023/03/02 06:43:45;;;;;;;40.75;22.15;;;21.70;78.10;;;21.01;35.93;99408.00;5108549;27;20054;-70
2023/03/02 06:46:12;;;;;;;33.28;21.25;;;21.70;78.30;;;21.02;35.71;99404.09;5100027;27;20483;-70
2023/03/02 06:48:38;;;;;;;38.08;23.35;;;21.70;78.10;;;21.03;35.82;99402.13;5107174;27;20058;-70
2023/03/02 06:51:04;;;;;;;36.67;21.58;;;21.70;78.40;;;21.02;35.59;99403.28;5111431;27;20043;-69
2023/03/02 06:53:31;;;;;;;34.80;21.92;;;21.70;78.40;;;21.06;35.62;99409.75;5115360;27;20071;-69
2023/03/02 06:55:57;;;;;;;40.50;22.42;;;21.70;78.10;;;21.07;35.79;99411.38;5109814;27;20036;-69
2023/03/02 06:58:23;;;;;;;37.53;22.88;;;21.70;78.40;;;21.07;35.65;99413.34;5117009;27;20050;-69
2023/03/02 07:00:49;;;;;;;35.60;21.77;;;21.70;78.80;;;21.06;35.79;99406.97;5101962;27;20059;-69
2023/03/02 07:03:16;;;;;;;32.05;21.58;;;21.70;78.40;;;21.08;35.61;99413.00;5109649;27;20043;-69
2023/03/02 07:05:42;;;;;;;32.63;22.38;;;21.70;78.60;;;21.09;35.67;99413.78;5105694;27;20043;-69
2023/03/02 07:08:08;;;;;;;34.78;21.45;;;21.80;78.30;;;21.10;35.67;99409.91;5107925;27;20134;-69
2023/03/02 07:10:36;;;;;;;38.83;25.23;;;21.80;78.00;;;21.11;35.54;99414.28;5111071;27;20489;-69
2023/03/02 07:13:02;;;;;;;36.65;21.60;;;21.80;78.80;;;21.09;35.73;99420.16;5109198;27;20047;-69
2023/03/02 07:15:28;;;;;;;36.47;22.40;;;21.80;78.80;;;21.15;35.37;99410.53;5109684;27;20442;-69
2023/03/02 07:17:54;;;;;;;31.40;20.50;;;21.80;79.20;;;21.12;35.59;99411.22;5110015;27;20048;-69
2023/03/02 07:20:20;;;;;;;35.35;21.63;;;21.80;78.80;;;21.16;35.37;99414.09;5108890;27;20491;-69
2023/03/02 07:22:46;;;;;;;34.63;22.20;;;21.80;79.00;;;21.15;35.59;99412.50;5106144;27;20058;-69
2023/03/02 07:25:13;;;;;;;33.10;21.15;;;21.80;79.70;;;21.18;35.69;99407.13;5110145;27;20035;-68
2023/03/02 07:27:39;;;;;;;35.20;21.38;;;21.80;79.70;;;21.22;35.61;99410.03;5113461;27;20409;-68
2023/03/02 07:30:06;;;;;;;36.72;21.88;;;21.80;81.30;;;21.19;35.50;99411.50;5106847;27;20043;-68
2023/03/02 07:32:32;;;;;;;33.88;22.13;;;21.90;80.20;;;21.25;35.59;99412.94;5108406;27;20414;-69
2023/03/02 07:34:58;;;;;;;38.50;23.80;;;21.90;80.30;;;21.28;35.41;99410.66;5110095;27;20174;-69
2023/03/02 07:37:24;;;;;;;33.03;22.17;;;21.90;80.20;;;21.27;35.75;99404.34;5106793;27;20089;-69
2023/03/02 07:39:52;;;;;;;35.00;23.20;;;21.90;80.10;;;21.32;35.50;99404.16;5106533;27;20044;-69
2023/03/02 07:42:18;;;;;;;30.80;21.63;;;22.00;80.80;;;21.32;35.82;99401.41;5109714;27;20039;-69
2023/03/02 07:44:44;;;;;;;32.65;21.42;;;22.00;79.90;;;21.34;35.86;99410.13;5107015;27;20039;-69
2023/03/02 07:47:10;;;;;;;36.38;22.00;;;22.00;80.30;;;21.36;35.48;99407.06;5099134;27;20103;-69
2023/03/02 07:49:37;;;;;;;39.75;21.77;;;22.00;76.10;;;21.38;35.34;99407.53;5107695;27;20135;-69
2023/03/02 07:52:03;;;;;;;38.70;23.38;;;22.00;77.70;;;21.45;35.33;99410.63;5104284;27;20036;-69
2023/03/02 07:54:32;;;;;;;33.08;21.65;;;22.10;77.50;;;21.43;35.64;99412.91;5084135;27;20044;-69
2023/03/02 07:56:58;;;;;;;38.90;22.13;;;22.10;78.70;;;21.49;35.49;99410.78;5106932;27;20039;-69
2023/03/02 07:59:25;;;;;;;34.05;22.30;;;22.10;79.50;;;21.48;35.47;99411.91;5110682;27;20115;-69
2023/03/02 08:01:51;;;;;;;41.85;23.42;;;22.20;78.40;;;21.50;35.36;99407.69;5109557;27;20118;-70
2023/03/02 08:04:17;;;;;;;36.10;22.55;;;22.20;78.30;;;21.47;35.29;99413.84;5107459;27;20067;-70
2023/03/02 08:06:43;;;;;;;33.13;20.45;;;22.20;79.10;;;21.50;35.37;99402.16;5107297;27;20054;-70
2023/03/02 08:09:12;;;;;;;35.65;21.58;;;22.20;78.70;;;21.52;35.21;99404.59;5107830;27;20094;-70
2023/03/02 08:11:38;;;;;;;37.03;21.38;;;22.20;78.20;;;21.48;35.25;99407.22;5108122;27;20040;-70
2023/03/02 08:14:05;;;;;;;39.00;22.30;;;22.10;78.80;;;21.50;35.28;99409.63;5102181;27;20122;-70
2023/03/02 08:16:31;;;;;;;33.80;21.60;;;22.20;77.70;;;21.52;35.00;99407.34;5108387;27;20517;-70
2023/03/02 08:18:58;;;;;;;34.83;21.88;;;22.20;77.60;;;21.53;35.09;99404.25;5104991;27;20043;-69
2023/03/02 08:21:24;;;;;;;37.10;21.70;;;22.20;78.10;;;21.55;35.09;99406.66;5110585;27;20414;-69
2023/03/02 08:23:51;;;;;;;33.30;22.25;;;22.30;78.90;;;21.65;34.99;99409.88;5097345;27;20144;-70
2023/03/02 08:26:18;;;;;;;60.55;22.67;;;22.30;79.90;;;21.77;35.30;99403.63;5084476;28;20066;-69
2023/03/02 08:28:45;;;;;;;35.38;23.60;;;22.30;81.60;;;21.82;35.08;99400.69;5090452;27;20043;-69
2023/03/02 08:31:11;;;;;;;41.88;23.30;;;22.50;80.10;;;21.81;34.97;99401.84;5103957;27;20051;-69
2023/03/02 08:33:37;;;;;;;43.90;21.55;;;22.50;79.50;;;21.86;35.03;99393.38;5113115;27;20062;-68
2023/03/02 08:36:06;;;;;;;60.50;23.40;;;22.50;79.10;;;21.87;35.01;99394.97;5103069;27;20676;-68
2023/03/02 08:38:33;;;;;;;38.33;22.30;;;22.50;79.40;;;21.86;34.89;99390.59;5100775;27;20127;-68
2023/03/02 08:41:02;;;;;;;44.50;21.67;;;22.60;80.20;;;21.91;34.98;99386.84;5112562;27;20095;-68
2023/03/02 08:43:28;;;;;;;39.15;21.52;;;22.60;79.50;;;21.89;34.75;99384.41;5089342;28;20047;-68
2023/03/02 08:45:56;;;;;;;37.20;21.02;;;22.60;79.80;;;21.87;34.91;99381.16;5105362;27;20078;-68
2023/03/02 08:48:23;;;;;;;36.45;20.10;;;22.60;82.60;;;21.92;34.68;99384.88;5093787;28;20106;-68
2023/03/02 08:51:06;;;;;;;38.67;21.88;;;22.60;73.00;;;21.93;34.73;99378.19;5102558;27;20434;-68
2023/03/02 08:53:35;;;;;;;34.20;19.95;;;22.60;73.30;;;21.96;34.70;99380.31;5100882;27;20143;-68
2023/03/02 08:56:01;;;;;;;33.70;21.08;;;22.60;75.50;;;21.97;34.75;99374.44;5101456;27;20483;-68
2023/03/02 08:58:28;;;;;;;32.05;20.67;;;22.70;73.60;;;22.03;34.49;99381.41;5097840;27;20501;-68
2023/03/02 09:00:54;;;;;;;44.30;19.58;;;22.70;74.10;;;22.00;34.59;99370.19;5107433;27;20075;-68
2023/03/02 09:03:20;;;;;;;34.05;19.75;;;22.70;75.80;;;22.00;34.63;99376.53;5112246;27;20043;-68
2023/03/02 09:05:46;;;;;;;30.85;19.90;;;22.70;80.00;;;22.02;34.67;99374.25;5112858;27;20593;-68
2023/03/02 09:08:12;;;;;;;36.67;20.83;;;22.70;74.50;;;22.07;34.84;99364.94;5104554;27;20071;-68
2023/03/02 09:10:39;;;;;;;35.80;19.90;;;22.70;70.90;;;22.09;34.77;99365.44;5099847;27;20709;-68
2023/03/02 09:13:06;;;;;;;45.78;20.92;;;22.80;69.80;;;22.12;35.10;99375.78;5110449;27;20044;-69
2023/03/02 09:15:32;;;;;;;40.60;19.80;;;22.80;70.40;;;22.14;34.87;99373.50;5100516;27;20040;-68
2023/03/02 09:17:58;;;;;;;31.73;20.38;;;22.80;70.40;;;22.17;34.95;99375.59;5104383;27;20044;-68
2023/03/02 09:20:25;;;;;;;41.83;20.88;;;22.90;70.30;;;22.14;35.02;99369.94;5109913;27;20073;-68
2023/03/02 09:22:51;;;;;;;38.13;19.35;;;22.90;69.90;;;22.16;34.96;99368.47;5106869;28;20533;-68
2023/03/02 09:25:17;;;;;;;34.10;20.05;;;22.90;70.30;;;22.19;34.96;99366.97;5098808;28;20055;-68
2023/03/02 09:27:45;;;;;;;38.63;18.08;;;22.90;70.50;;;22.15;34.96;99364.06;5099053;28;20495;-68
2023/03/02 09:30:12;;;;;;;36.47;19.50;;;22.90;70.90;;;22.23;34.90;99365.97;5102502;28;20148;-68
2023/03/02 09:32:38;;;;;;;27.20;18.50;;;22.90;70.80;;;22.29;34.95;99366.59;5106105;28;20673;-68
2023/03/02 09:35:06;;;;;;;30.58;19.50;;;22.90;71.20;;;22.27;34.95;99355.88;5100408;28;20063;-68
2023/03/02 09:37:34;;;;;;;33.80;18.15;;;23.00;71.30;;;22.30;34.86;99349.66;5100582;28;20158;-68
2023/03/02 09:39:59;;;;;;;31.92;19.38;;;23.00;71.40;;;22.33;34.92;99357.28;5108536;28;20055;-68
2023/03/02 09:43:18;;;;;;;34.97;18.90;;;23.00;71.60;;;22.35;34.82;99345.09;5104825;27;20780;-68
2023/03/02 09:46:11;;;;;;;30.45;19.75;;;23.00;71.60;;;22.35;34.85;99347.84;5090203;27;20044;-68
2023/03/02 09:49:13;;;;;;;27.00;17.88;;;23.00;72.00;;;22.35;34.89;99351.41;5109819;27;20043;-68
2023/03/02 09:52:12;;;;;;;37.90;20.27;;;23.00;72.70;;;22.35;34.94;99356.16;5107007;27;20051;-68
2023/03/02 09:54:39;;;;;;;34.03;17.60;;;23.00;74.30;;;22.40;34.83;99345.69;5067654;27;20498;-68
2023/03/02 09:57:24;;;;;;;27.02;18.15;;;;;;;22.42;34.75;99346.16;5109393;27;20074;-68
2023/03/02 10:00:03;;;;;;;29.45;18.80;;;23.00;74.40;;;22.47;34.89;99347.91;5113142;27;20116;-68
2023/03/02 10:02:39;;;;;;;32.70;17.50;;;23.10;74.80;;;22.44;34.93;99346.63;5110676;27;20059;-68
2023/03/02 10:05:10;;;;;;;29.17;18.58;;;23.10;74.40;;;22.45;35.09;99341.91;5078353;27;20596;-68
2023/03/02 10:07:37;;;;;;;24.35;16.70;;;23.10;74.00;;;22.49;34.80;99340.91;5079985;27;20055;-68
2023/03/02 10:10:11;;;;;;;28.48;17.08;;;23.10;74.10;;;22.52;35.05;99337.44;5096040;27;20138;-68
2023/03/02 10:13:09;;;;;;;25.77;18.10;;;23.20;74.10;;;22.48;34.66;99327.41;5109438;27;20071;-68
2023/03/02 10:15:46;;;;;;;26.85;16.75;;;23.20;73.70;;;22.48;34.90;99330.16;5110562;27;20214;-68